This is the latest recevied weather packets stored in our database for station/object OE6ACM-10. If no packets are shown the sender has not sent any weather packets the latest 10 day(s).
| Time | Temp. | Humidity | Pressure | Rain* | Wind** | Luminosity | Snow |
|---|---|---|---|---|---|---|---|
| 1788451286 | 35.56° C | 84% | 930.6 hPa | - | - | - | - |
| 1788450986 | 35.56° C | 91% | 930.6 hPa | - | - | - | - |
| 1788450686 | 35° C | 89% | 930.6 hPa | - | - | - | - |
| 1788450386 | 35° C | 90% | 930.7 hPa | - | - | - | - |
| 1788450086 | 33.89° C | 90% | 930.6 hPa | - | - | - | - |
| 1788449786 | 34.44° C | 86% | 930.6 hPa | - | - | - | - |
| 1788449486 | 35° C | 77% | 930.6 hPa | - | - | - | - |
| 1788449186 | 36.11° C | 66% | 930.7 hPa | - | - | - | - |
| 1788448886 | 35.56° C | 77% | 930.7 hPa | - | - | - | - |
| 1788448586 | 35° C | 79% | 930.7 hPa | - | - | - | - |
| 1788448286 | 33.89° C | 83% | 930.8 hPa | - | - | - | - |
| 1788447986 | 33.33° C | 84% | 930.8 hPa | - | - | - | - |
| 1788447686 | 33.89° C | 76% | 930.8 hPa | - | - | - | - |
| 1788447386 | 35° C | 68% | 930.8 hPa | - | - | - | - |
| 1788447086 | 36.11° C | 58% | 930.9 hPa | - | - | - | - |
| 1788446786 | 39.44° C | 50% | 930.8 hPa | - | - | - | - |
| 1788446486 | 38.89° C | 52% | 930.7 hPa | - | - | - | - |
| 1788446186 | 39.44° C | 49% | 930.9 hPa | - | - | - | - |
| 1788445886 | 41.67° C | 53% | 930.9 hPa | - | - | - | - |
| 1788445586 | 40° C | 53% | 930.9 hPa | - | - | - | - |
| 1788445286 | 38.33° C | 63% | 930.9 hPa | - | - | - | - |
| 1788444986 | 38.89° C | 73% | 930.9 hPa | - | - | - | - |
| 1788444686 | 36.11° C | 83% | 931 hPa | - | - | - | - |
| 1788444386 | 35.56° C | 89% | 930.9 hPa | - | - | - | - |
| 1788444093 | 33.33° C | 100% | 930.8 hPa | - | - | - | - |
* Rain since midnight (hover to see other rain measurements)
** Current wind speed in m/s (hover to see current wind gust speed)